sensor_id;sensor_type;location;lat;lon;timestamp;P1;durP1;ratioP1;P2;durP2;ratioP2
24801;SDS011;12898;50.520;12.152;2023-06-10T00:01:37;18.60;;;16.05;;
24801;SDS011;12898;50.520;12.152;2023-06-10T00:04:03;22.65;;;16.65;;
24801;SDS011;12898;50.520;12.152;2023-06-10T00:06:29;22.00;;;16.90;;
24801;SDS011;12898;50.520;12.152;2023-06-10T00:09:01;20.88;;;16.98;;
24801;SDS011;12898;50.520;12.152;2023-06-10T00:11:33;19.80;;;16.83;;
24801;SDS011;12898;50.520;12.152;2023-06-10T00:13:59;23.70;;;16.95;;
24801;SDS011;12898;50.520;12.152;2023-06-10T00:16:25;20.33;;;17.13;;
24801;SDS011;12898;50.520;12.152;2023-06-10T00:18:51;20.05;;;17.40;;
24801;SDS011;12898;50.520;12.152;2023-06-10T00:21:17;23.08;;;18.15;;
24801;SDS011;12898;50.520;12.152;2023-06-10T00:23:44;19.70;;;17.40;;
24801;SDS011;12898;50.520;12.152;2023-06-10T00:26:10;19.75;;;15.93;;
24801;SDS011;12898;50.520;12.152;2023-06-10T00:28:36;22.17;;;17.48;;
24801;SDS011;12898;50.520;12.152;2023-06-10T00:31:01;21.50;;;17.70;;
24801;SDS011;12898;50.520;12.152;2023-06-10T00:33:29;21.58;;;16.77;;
24801;SDS011;12898;50.520;12.152;2023-06-10T00:35:55;23.13;;;16.88;;
24801;SDS011;12898;50.520;12.152;2023-06-10T00:38:20;20.30;;;17.10;;
24801;SDS011;12898;50.520;12.152;2023-06-10T00:40:46;19.00;;;16.10;;
24801;SDS011;12898;50.520;12.152;2023-06-10T00:43:12;18.23;;;15.88;;
24801;SDS011;12898;50.520;12.152;2023-06-10T00:45:37;18.75;;;15.02;;
24801;SDS011;12898;50.520;12.152;2023-06-10T00:48:04;20.30;;;16.83;;
24801;SDS011;12898;50.520;12.152;2023-06-10T00:50:30;21.25;;;16.63;;
24801;SDS011;12898;50.520;12.152;2023-06-10T00:52:56;19.73;;;16.92;;
24801;SDS011;12898;50.520;12.152;2023-06-10T00:55:23;20.77;;;16.42;;
24801;SDS011;12898;50.520;12.152;2023-06-10T00:57:52;21.30;;;17.77;;
24801;SDS011;12898;50.520;12.152;2023-06-10T01:00:18;23.45;;;18.42;;
24801;SDS011;12898;50.520;12.152;2023-06-10T01:02:44;21.45;;;18.55;;
24801;SDS011;12898;50.520;12.152;2023-06-10T01:05:10;21.50;;;17.13;;
24801;SDS011;12898;50.520;12.152;2023-06-10T01:07:40;22.60;;;18.63;;
24801;SDS011;12898;50.520;12.152;2023-06-10T01:10:25;22.58;;;18.73;;
24801;SDS011;12898;50.520;12.152;2023-06-10T01:13:15;22.90;;;18.38;;
24801;SDS011;12898;50.520;12.152;2023-06-10T01:15:43;25.38;;;18.80;;
24801;SDS011;12898;50.520;12.152;2023-06-10T01:18:10;21.27;;;17.45;;
24801;SDS011;12898;50.520;12.152;2023-06-10T01:20:40;22.33;;;18.00;;
24801;SDS011;12898;50.520;12.152;2023-06-10T01:23:08;19.98;;;17.23;;
24801;SDS011;12898;50.520;12.152;2023-06-10T01:25:38;21.33;;;17.17;;
24801;SDS011;12898;50.520;12.152;2023-06-10T01:28:14;21.27;;;17.83;;
24801;SDS011;12898;50.520;12.152;2023-06-10T01:33:25;19.42;;;16.98;;
24801;SDS011;12898;50.520;12.152;2023-06-10T01:35:56;19.00;;;16.48;;
24801;SDS011;12898;50.520;12.152;2023-06-10T01:38:25;22.13;;;16.92;;
24801;SDS011;12898;50.520;12.152;2023-06-10T01:40:56;20.13;;;16.27;;
24801;SDS011;12898;50.520;12.152;2023-06-10T01:43:22;20.25;;;16.98;;
24801;SDS011;12898;50.520;12.152;2023-06-10T01:45:48;20.17;;;17.10;;
24801;SDS011;12898;50.520;12.152;2023-06-10T01:48:14;20.70;;;17.75;;
24801;SDS011;12898;50.520;12.152;2023-06-10T01:50:39;20.52;;;17.35;;
24801;SDS011;12898;50.520;12.152;2023-06-10T01:53:05;22.60;;;17.73;;
24801;SDS011;12898;50.520;12.152;2023-06-10T01:55:31;22.50;;;18.05;;
24801;SDS011;12898;50.520;12.152;2023-06-10T01:57:57;21.20;;;16.95;;
24801;SDS011;12898;50.520;12.152;2023-06-10T02:00:22;21.92;;;18.13;;
24801;SDS011;12898;50.520;12.152;2023-06-10T02:02:48;19.77;;;16.80;;
24801;SDS011;12898;50.520;12.152;2023-06-10T02:05:14;23.48;;;18.38;;
24801;SDS011;12898;50.520;12.152;2023-06-10T02:07:39;21.20;;;17.83;;
24801;SDS011;12898;50.520;12.152;2023-06-10T02:10:06;26.38;;;17.73;;
24801;SDS011;12898;50.520;12.152;2023-06-10T02:12:32;20.63;;;16.95;;
24801;SDS011;12898;50.520;12.152;2023-06-10T02:14:58;21.85;;;18.23;;
24801;SDS011;12898;50.520;12.152;2023-06-10T02:17:24;19.38;;;16.95;;
24801;SDS011;12898;50.520;12.152;2023-06-10T02:19:50;21.42;;;17.55;;
24801;SDS011;12898;50.520;12.152;2023-06-10T02:22:20;21.58;;;16.95;;
24801;SDS011;12898;50.520;12.152;2023-06-10T02:24:48;19.92;;;17.40;;
24801;SDS011;12898;50.520;12.152;2023-06-10T02:27:17;21.95;;;17.02;;
24801;SDS011;12898;50.520;12.152;2023-06-10T02:29:43;21.00;;;17.30;;
24801;SDS011;12898;50.520;12.152;2023-06-10T02:32:09;22.65;;;17.83;;
24801;SDS011;12898;50.520;12.152;2023-06-10T02:34:35;20.73;;;16.85;;
24801;SDS011;12898;50.520;12.152;2023-06-10T02:37:01;19.48;;;16.80;;
24801;SDS011;12898;50.520;12.152;2023-06-10T02:39:28;21.77;;;16.88;;
24801;SDS011;12898;50.520;12.152;2023-06-10T02:41:53;21.45;;;16.92;;
24801;SDS011;12898;50.520;12.152;2023-06-10T02:44:19;23.00;;;18.40;;
24801;SDS011;12898;50.520;12.152;2023-06-10T02:46:45;19.38;;;17.27;;
24801;SDS011;12898;50.520;12.152;2023-06-10T02:49:11;20.83;;;16.40;;
24801;SDS011;12898;50.520;12.152;2023-06-10T02:51:37;20.35;;;17.17;;
24801;SDS011;12898;50.520;12.152;2023-06-10T02:54:03;21.50;;;16.83;;
24801;SDS011;12898;50.520;12.152;2023-06-10T02:56:29;21.33;;;18.05;;
24801;SDS011;12898;50.520;12.152;2023-06-10T02:58:56;20.20;;;17.48;;
24801;SDS011;12898;50.520;12.152;2023-06-10T03:01:22;20.75;;;17.38;;
24801;SDS011;12898;50.520;12.152;2023-06-10T03:03:48;20.40;;;17.02;;
24801;SDS011;12898;50.520;12.152;2023-06-10T03:06:15;21.92;;;17.17;;
24801;SDS011;12898;50.520;12.152;2023-06-10T03:08:41;20.40;;;16.20;;
24801;SDS011;12898;50.520;12.152;2023-06-10T03:11:07;19.02;;;15.23;;
24801;SDS011;12898;50.520;12.152;2023-06-10T03:13:33;20.35;;;16.92;;
24801;SDS011;12898;50.520;12.152;2023-06-10T03:15:59;20.08;;;16.42;;
24801;SDS011;12898;50.520;12.152;2023-06-10T03:18:25;20.23;;;16.50;;
24801;SDS011;12898;50.520;12.152;2023-06-10T03:20:52;26.77;;;18.08;;
24801;SDS011;12898;50.520;12.152;2023-06-10T03:23:19;19.70;;;16.02;;
24801;SDS011;12898;50.520;12.152;2023-06-10T03:25:45;19.90;;;16.50;;
24801;SDS011;12898;50.520;12.152;2023-06-10T03:28:11;22.48;;;17.38;;
24801;SDS011;12898;50.520;12.152;2023-06-10T03:30:37;20.83;;;18.38;;
24801;SDS011;12898;50.520;12.152;2023-06-10T03:33:03;21.38;;;18.25;;
24801;SDS011;12898;50.520;12.152;2023-06-10T03:35:29;22.17;;;18.98;;
24801;SDS011;12898;50.520;12.152;2023-06-10T03:37:55;21.65;;;18.77;;
24801;SDS011;12898;50.520;12.152;2023-06-10T03:40:20;21.35;;;17.13;;
24801;SDS011;12898;50.520;12.152;2023-06-10T03:42:46;22.42;;;17.83;;
24801;SDS011;12898;50.520;12.152;2023-06-10T03:45:12;21.35;;;17.55;;
24801;SDS011;12898;50.520;12.152;2023-06-10T03:47:37;19.98;;;17.42;;
24801;SDS011;12898;50.520;12.152;2023-06-10T03:50:05;20.55;;;17.33;;
24801;SDS011;12898;50.520;12.152;2023-06-10T03:52:37;22.08;;;18.58;;
24801;SDS011;12898;50.520;12.152;2023-06-10T03:55:03;21.33;;;17.90;;
24801;SDS011;12898;50.520;12.152;2023-06-10T03:57:30;21.48;;;17.70;;
24801;SDS011;12898;50.520;12.152;2023-06-10T03:59:55;22.15;;;19.38;;
24801;SDS011;12898;50.520;12.152;2023-06-10T04:02:21;22.77;;;19.10;;
24801;SDS011;12898;50.520;12.152;2023-06-10T04:04:47;20.85;;;17.73;;
24801;SDS011;12898;50.520;12.152;2023-06-10T04:07:13;23.65;;;18.27;;
24801;SDS011;12898;50.520;12.152;2023-06-10T04:09:39;21.63;;;18.17;;
24801;SDS011;12898;50.520;12.152;2023-06-10T04:12:05;24.05;;;18.75;;
24801;SDS011;12898;50.520;12.152;2023-06-10T04:14:33;24.35;;;19.52;;
24801;SDS011;12898;50.520;12.152;2023-06-10T04:17:01;22.67;;;19.63;;
24801;SDS011;12898;50.520;12.152;2023-06-10T04:19:27;20.83;;;17.58;;
24801;SDS011;12898;50.520;12.152;2023-06-10T04:21:53;19.48;;;16.30;;
24801;SDS011;12898;50.520;12.152;2023-06-10T04:24:19;20.70;;;17.45;;
24801;SDS011;12898;50.520;12.152;2023-06-10T04:26:45;27.35;;;21.17;;
24801;SDS011;12898;50.520;12.152;2023-06-10T04:29:11;20.98;;;17.63;;
24801;SDS011;12898;50.520;12.152;2023-06-10T04:31:36;26.30;;;21.83;;
24801;SDS011;12898;50.520;12.152;2023-06-10T04:34:02;22.67;;;20.20;;
24801;SDS011;12898;50.520;12.152;2023-06-10T04:36:28;22.15;;;19.73;;
24801;SDS011;12898;50.520;12.152;2023-06-10T04:38:55;20.23;;;17.25;;
24801;SDS011;12898;50.520;12.152;2023-06-10T04:41:20;22.00;;;18.65;;
24801;SDS011;12898;50.520;12.152;2023-06-10T04:43:47;19.80;;;17.20;;
24801;SDS011;12898;50.520;12.152;2023-06-10T04:46:12;20.50;;;16.58;;
24801;SDS011;12898;50.520;12.152;2023-06-10T04:48:38;19.67;;;15.82;;
24801;SDS011;12898;50.520;12.152;2023-06-10T04:51:05;19.50;;;15.88;;
24801;SDS011;12898;50.520;12.152;2023-06-10T04:53:31;18.02;;;15.50;;
24801;SDS011;12898;50.520;12.152;2023-06-10T04:55:56;17.40;;;14.50;;
24801;SDS011;12898;50.520;12.152;2023-06-10T04:58:22;19.25;;;15.65;;
24801;SDS011;12898;50.520;12.152;2023-06-10T05:00:48;21.60;;;17.65;;
24801;SDS011;12898;50.520;12.152;2023-06-10T05:03:15;20.40;;;16.33;;
24801;SDS011;12898;50.520;12.152;2023-06-10T05:05:40;21.42;;;16.33;;
24801;SDS011;12898;50.520;12.152;2023-06-10T05:08:06;18.63;;;14.30;;
24801;SDS011;12898;50.520;12.152;2023-06-10T05:10:32;17.92;;;15.07;;
24801;SDS011;12898;50.520;12.152;2023-06-10T05:12:59;24.75;;;16.60;;
24801;SDS011;12898;50.520;12.152;2023-06-10T05:15:24;17.15;;;14.23;;
24801;SDS011;12898;50.520;12.152;2023-06-10T05:17:50;19.90;;;14.18;;
24801;SDS011;12898;50.520;12.152;2023-06-10T05:20:16;19.83;;;13.13;;
24801;SDS011;12898;50.520;12.152;2023-06-10T05:22:43;19.20;;;13.43;;
24801;SDS011;12898;50.520;12.152;2023-06-10T05:25:09;19.05;;;12.50;;
24801;SDS011;12898;50.520;12.152;2023-06-10T05:27:35;18.05;;;13.30;;
24801;SDS011;12898;50.520;12.152;2023-06-10T05:30:01;19.83;;;12.13;;
24801;SDS011;12898;50.520;12.152;2023-06-10T05:32:28;18.52;;;12.50;;
24801;SDS011;12898;50.520;12.152;2023-06-10T05:34:54;16.83;;;12.68;;
24801;SDS011;12898;50.520;12.152;2023-06-10T05:37:19;20.13;;;13.07;;
24801;SDS011;12898;50.520;12.152;2023-06-10T05:39:45;17.70;;;12.63;;
24801;SDS011;12898;50.520;12.152;2023-06-10T05:42:11;19.88;;;12.90;;
24801;SDS011;12898;50.520;12.152;2023-06-10T05:44:36;19.15;;;13.15;;
24801;SDS011;12898;50.520;12.152;2023-06-10T05:47:02;17.83;;;12.75;;
24801;SDS011;12898;50.520;12.152;2023-06-10T05:49:28;16.40;;;12.35;;
24801;SDS011;12898;50.520;12.152;2023-06-10T05:51:54;16.60;;;11.77;;
24801;SDS011;12898;50.520;12.152;2023-06-10T05:54:21;15.95;;;11.88;;
24801;SDS011;12898;50.520;12.152;2023-06-10T05:56:47;19.40;;;11.88;;
24801;SDS011;12898;50.520;12.152;2023-06-10T05:59:12;17.23;;;12.18;;
24801;SDS011;12898;50.520;12.152;2023-06-10T06:01:38;17.75;;;11.75;;
24801;SDS011;12898;50.520;12.152;2023-06-10T06:04:04;23.02;;;12.35;;
24801;SDS011;12898;50.520;12.152;2023-06-10T06:06:29;19.17;;;12.15;;
24801;SDS011;12898;50.520;12.152;2023-06-10T06:08:55;16.60;;;12.27;;
24801;SDS011;12898;50.520;12.152;2023-06-10T06:11:21;18.45;;;13.40;;
24801;SDS011;12898;50.520;12.152;2023-06-10T06:13:47;20.00;;;12.77;;
24801;SDS011;12898;50.520;12.152;2023-06-10T06:16:13;19.20;;;12.50;;
24801;SDS011;12898;50.520;12.152;2023-06-10T06:18:39;15.75;;;11.63;;
24801;SDS011;12898;50.520;12.152;2023-06-10T06:21:04;19.85;;;11.82;;
24801;SDS011;12898;50.520;12.152;2023-06-10T06:23:30;17.20;;;11.48;;
24801;SDS011;12898;50.520;12.152;2023-06-10T06:25:56;17.65;;;11.70;;
24801;SDS011;12898;50.520;12.152;2023-06-10T06:28:21;16.13;;;12.07;;
24801;SDS011;12898;50.520;12.152;2023-06-10T06:30:47;18.58;;;12.07;;
24801;SDS011;12898;50.520;12.152;2023-06-10T06:33:13;18.48;;;10.88;;
24801;SDS011;12898;50.520;12.152;2023-06-10T06:35:39;17.42;;;11.90;;
24801;SDS011;12898;50.520;12.152;2023-06-10T06:38:05;16.40;;;12.10;;
24801;SDS011;12898;50.520;12.152;2023-06-10T06:40:30;16.45;;;12.32;;
24801;SDS011;12898;50.520;12.152;2023-06-10T06:42:56;19.48;;;11.80;;
24801;SDS011;12898;50.520;12.152;2023-06-10T06:45:22;17.83;;;11.07;;
24801;SDS011;12898;50.520;12.152;2023-06-10T06:47:47;17.48;;;11.25;;
24801;SDS011;12898;50.520;12.152;2023-06-10T06:50:13;19.40;;;10.65;;
24801;SDS011;12898;50.520;12.152;2023-06-10T06:52:39;14.07;;;10.65;;
24801;SDS011;12898;50.520;12.152;2023-06-10T06:55:05;15.80;;;10.60;;
24801;SDS011;12898;50.520;12.152;2023-06-10T06:57:31;15.43;;;11.20;;
24801;SDS011;12898;50.520;12.152;2023-06-10T06:59:57;15.73;;;10.18;;
24801;SDS011;12898;50.520;12.152;2023-06-10T07:02:22;13.98;;;9.50;;
24801;SDS011;12898;50.520;12.152;2023-06-10T07:04:48;15.38;;;10.38;;
24801;SDS011;12898;50.520;12.152;2023-06-10T07:07:14;15.73;;;10.35;;
24801;SDS011;12898;50.520;12.152;2023-06-10T07:09:40;14.90;;;9.88;;
24801;SDS011;12898;50.520;12.152;2023-06-10T07:12:06;15.50;;;9.98;;
24801;SDS011;12898;50.520;12.152;2023-06-10T07:14:33;16.27;;;9.55;;
24801;SDS011;12898;50.520;12.152;2023-06-10T07:16:59;15.18;;;9.27;;
24801;SDS011;12898;50.520;12.152;2023-06-10T07:19:24;15.50;;;9.63;;
24801;SDS011;12898;50.520;12.152;2023-06-10T07:21:50;11.93;;;8.13;;
24801;SDS011;12898;50.520;12.152;2023-06-10T07:24:16;12.60;;;8.82;;
24801;SDS011;12898;50.520;12.152;2023-06-10T07:26:41;13.20;;;9.00;;
24801;SDS011;12898;50.520;12.152;2023-06-10T07:29:07;12.93;;;8.35;;
24801;SDS011;12898;50.520;12.152;2023-06-10T07:31:33;13.68;;;8.75;;
24801;SDS011;12898;50.520;12.152;2023-06-10T07:33:59;19.35;;;9.73;;
24801;SDS011;12898;50.520;12.152;2023-06-10T07:36:25;15.77;;;8.85;;
24801;SDS011;12898;50.520;12.152;2023-06-10T07:38:53;15.95;;;8.65;;
24801;SDS011;12898;50.520;12.152;2023-06-10T07:41:19;12.18;;;7.68;;
24801;SDS011;12898;50.520;12.152;2023-06-10T07:43:45;13.25;;;7.75;;
24801;SDS011;12898;50.520;12.152;2023-06-10T07:46:11;13.05;;;8.68;;
24801;SDS011;12898;50.520;12.152;2023-06-10T07:48:38;10.00;;;7.57;;
24801;SDS011;12898;50.520;12.152;2023-06-10T07:51:05;12.00;;;7.35;;
24801;SDS011;12898;50.520;12.152;2023-06-10T07:53:31;12.43;;;7.90;;
24801;SDS011;12898;50.520;12.152;2023-06-10T07:55:56;13.98;;;7.30;;
24801;SDS011;12898;50.520;12.152;2023-06-10T07:58:22;11.73;;;7.38;;
24801;SDS011;12898;50.520;12.152;2023-06-10T08:00:48;12.13;;;8.10;;
24801;SDS011;12898;50.520;12.152;2023-06-10T08:03:13;13.40;;;7.93;;
24801;SDS011;12898;50.520;12.152;2023-06-10T08:05:39;12.30;;;8.02;;
24801;SDS011;12898;50.520;12.152;2023-06-10T08:08:05;11.00;;;7.47;;
24801;SDS011;12898;50.520;12.152;2023-06-10T08:10:31;13.00;;;7.20;;
24801;SDS011;12898;50.520;12.152;2023-06-10T08:12:57;11.50;;;7.18;;
24801;SDS011;12898;50.520;12.152;2023-06-10T08:15:23;12.82;;;7.15;;
24801;SDS011;12898;50.520;12.152;2023-06-10T08:17:48;11.65;;;8.23;;
24801;SDS011;12898;50.520;12.152;2023-06-10T08:20:14;12.02;;;8.30;;
24801;SDS011;12898;50.520;12.152;2023-06-10T08:22:40;10.52;;;6.93;;
24801;SDS011;12898;50.520;12.152;2023-06-10T08:25:05;11.43;;;7.13;;
24801;SDS011;12898;50.520;12.152;2023-06-10T08:27:33;12.32;;;6.78;;
24801;SDS011;12898;50.520;12.152;2023-06-10T08:29:59;10.27;;;6.93;;
24801;SDS011;12898;50.520;12.152;2023-06-10T08:32:25;9.20;;;6.80;;
24801;SDS011;12898;50.520;12.152;2023-06-10T08:34:51;11.15;;;7.03;;
24801;SDS011;12898;50.520;12.152;2023-06-10T08:37:17;12.52;;;7.05;;
24801;SDS011;12898;50.520;12.152;2023-06-10T08:39:42;11.35;;;7.22;;
24801;SDS011;12898;50.520;12.152;2023-06-10T08:44:58;19.13;;;7.18;;
24801;SDS011;12898;50.520;12.152;2023-06-10T08:47:27;15.15;;;7.25;;
24801;SDS011;12898;50.520;12.152;2023-06-10T08:49:56;10.13;;;6.53;;
24801;SDS011;12898;50.520;12.152;2023-06-10T08:52:28;13.05;;;7.47;;
24801;SDS011;12898;50.520;12.152;2023-06-10T08:55:07;9.95;;;6.72;;
24801;SDS011;12898;50.520;12.152;2023-06-10T08:57:39;13.40;;;7.03;;
24801;SDS011;12898;50.520;12.152;2023-06-10T09:00:07;12.77;;;7.97;;
24801;SDS011;12898;50.520;12.152;2023-06-10T09:02:34;12.45;;;7.38;;
24801;SDS011;12898;50.520;12.152;2023-06-10T09:05:01;14.27;;;7.10;;
24801;SDS011;12898;50.520;12.152;2023-06-10T09:07:28;14.98;;;8.57;;
24801;SDS011;12898;50.520;12.152;2023-06-10T09:10:01;12.10;;;7.45;;
24801;SDS011;12898;50.520;12.152;2023-06-10T09:12:28;12.05;;;7.28;;
24801;SDS011;12898;50.520;12.152;2023-06-10T09:14:55;12.88;;;7.20;;
24801;SDS011;12898;50.520;12.152;2023-06-10T09:17:21;10.88;;;6.75;;
24801;SDS011;12898;50.520;12.152;2023-06-10T09:19:47;10.93;;;7.45;;
24801;SDS011;12898;50.520;12.152;2023-06-10T09:22:14;11.70;;;7.82;;
24801;SDS011;12898;50.520;12.152;2023-06-10T09:24:39;11.93;;;7.65;;
24801;SDS011;12898;50.520;12.152;2023-06-10T09:27:07;12.15;;;7.45;;
24801;SDS011;12898;50.520;12.152;2023-06-10T09:32:18;11.40;;;7.60;;
24801;SDS011;12898;50.520;12.152;2023-06-10T09:34:45;10.93;;;7.53;;
24801;SDS011;12898;50.520;12.152;2023-06-10T09:37:11;13.38;;;7.60;;
24801;SDS011;12898;50.520;12.152;2023-06-10T09:39:38;15.15;;;7.70;;
24801;SDS011;12898;50.520;12.152;2023-06-10T09:42:15;11.77;;;7.75;;
24801;SDS011;12898;50.520;12.152;2023-06-10T09:44:48;10.73;;;7.35;;
24801;SDS011;12898;50.520;12.152;2023-06-10T09:47:22;12.25;;;7.57;;
24801;SDS011;12898;50.520;12.152;2023-06-10T09:49:48;11.35;;;7.95;;
24801;SDS011;12898;50.520;12.152;2023-06-10T09:52:20;11.75;;;7.60;;
24801;SDS011;12898;50.520;12.152;2023-06-10T09:54:51;9.95;;;7.05;;
24801;SDS011;12898;50.520;12.152;2023-06-10T09:57:29;10.27;;;7.07;;
24801;SDS011;12898;50.520;12.152;2023-06-10T09:59:59;10.80;;;7.22;;
24801;SDS011;12898;50.520;12.152;2023-06-10T10:02:29;11.90;;;7.50;;
24801;SDS011;12898;50.520;12.152;2023-06-10T10:05:01;12.30;;;7.45;;
24801;SDS011;12898;50.520;12.152;2023-06-10T10:07:29;13.02;;;7.20;;
24801;SDS011;12898;50.520;12.152;2023-06-10T10:09:55;10.50;;;7.38;;
24801;SDS011;12898;50.520;12.152;2023-06-10T10:12:21;13.48;;;7.43;;
24801;SDS011;12898;50.520;12.152;2023-06-10T10:14:47;11.10;;;7.25;;
24801;SDS011;12898;50.520;12.152;2023-06-10T10:17:15;10.25;;;7.45;;
24801;SDS011;12898;50.520;12.152;2023-06-10T10:19:48;9.00;;;6.65;;
24801;SDS011;12898;50.520;12.152;2023-06-10T10:22:20;10.15;;;7.15;;
24801;SDS011;12898;50.520;12.152;2023-06-10T10:24:59;9.05;;;6.95;;
24801;SDS011;12898;50.520;12.152;2023-06-10T10:28:14;10.20;;;7.78;;
24801;SDS011;12898;50.520;12.152;2023-06-10T10:30:37;9.52;;;7.18;;
24801;SDS011;12898;50.520;12.152;2023-06-10T10:33:12;14.05;;;7.78;;
24801;SDS011;12898;50.520;12.152;2023-06-10T10:35:42;11.15;;;7.70;;
24801;SDS011;12898;50.520;12.152;2023-06-10T10:38:11;13.50;;;7.38;;
24801;SDS011;12898;50.520;12.152;2023-06-10T10:40:37;11.80;;;7.70;;
24801;SDS011;12898;50.520;12.152;2023-06-10T10:43:05;11.10;;;6.80;;
24801;SDS011;12898;50.520;12.152;2023-06-10T10:45:33;10.43;;;7.30;;
24801;SDS011;12898;50.520;12.152;2023-06-10T10:47:59;13.23;;;7.45;;
24801;SDS011;12898;50.520;12.152;2023-06-10T10:50:36;13.82;;;7.20;;
24801;SDS011;12898;50.520;12.152;2023-06-10T10:53:03;12.10;;;6.93;;
24801;SDS011;12898;50.520;12.152;2023-06-10T10:55:30;9.80;;;7.40;;
24801;SDS011;12898;50.520;12.152;2023-06-10T10:58:03;9.85;;;7.28;;
24801;SDS011;12898;50.520;12.152;2023-06-10T11:00:32;9.93;;;7.10;;
24801;SDS011;12898;50.520;12.152;2023-06-10T11:05:39;9.15;;;6.00;;
24801;SDS011;12898;50.520;12.152;2023-06-10T11:08:13;10.77;;;6.20;;
24801;SDS011;12898;50.520;12.152;2023-06-10T11:10:40;9.98;;;7.38;;
24801;SDS011;12898;50.520;12.152;2023-06-10T11:13:18;12.82;;;6.03;;
24801;SDS011;12898;50.520;12.152;2023-06-10T11:15:46;8.65;;;5.63;;
24801;SDS011;12898;50.520;12.152;2023-06-10T11:18:27;9.25;;;5.75;;
24801;SDS011;12898;50.520;12.152;2023-06-10T11:21:04;9.25;;;5.40;;
24801;SDS011;12898;50.520;12.152;2023-06-10T11:23:48;6.85;;;5.22;;
24801;SDS011;12898;50.520;12.152;2023-06-10T11:26:19;6.93;;;5.55;;
24801;SDS011;12898;50.520;12.152;2023-06-10T11:33:54;9.75;;;6.57;;
24801;SDS011;12898;50.520;12.152;2023-06-10T11:36:32;9.82;;;6.35;;
24801;SDS011;12898;50.520;12.152;2023-06-10T11:39:08;13.70;;;9.38;;
24801;SDS011;12898;50.520;12.152;2023-06-10T11:41:35;11.27;;;7.13;;
24801;SDS011;12898;50.520;12.152;2023-06-10T11:44:09;10.00;;;6.35;;
24801;SDS011;12898;50.520;12.152;2023-06-10T11:46:38;10.95;;;6.57;;
24801;SDS011;12898;50.520;12.152;2023-06-10T11:49:04;9.90;;;5.90;;
24801;SDS011;12898;50.520;12.152;2023-06-10T11:51:35;11.10;;;6.47;;
24801;SDS011;12898;50.520;12.152;2023-06-10T11:54:03;10.23;;;6.10;;
24801;SDS011;12898;50.520;12.152;2023-06-10T11:56:30;8.95;;;6.03;;
24801;SDS011;12898;50.520;12.152;2023-06-10T11:58:58;9.73;;;6.05;;
24801;SDS011;12898;50.520;12.152;2023-06-10T12:01:33;9.88;;;6.50;;
24801;SDS011;12898;50.520;12.152;2023-06-10T12:04:05;8.93;;;5.97;;
24801;SDS011;12898;50.520;12.152;2023-06-10T12:06:40;8.85;;;5.70;;
24801;SDS011;12898;50.520;12.152;2023-06-10T12:09:14;11.43;;;5.47;;
24801;SDS011;12898;50.520;12.152;2023-06-10T12:11:42;8.50;;;5.60;;
24801;SDS011;12898;50.520;12.152;2023-06-10T12:14:09;8.48;;;5.40;;
24801;SDS011;12898;50.520;12.152;2023-06-10T12:16:34;10.38;;;5.40;;
24801;SDS011;12898;50.520;12.152;2023-06-10T12:19:01;8.43;;;5.38;;
24801;SDS011;12898;50.520;12.152;2023-06-10T12:21:28;8.15;;;5.38;;
24801;SDS011;12898;50.520;12.152;2023-06-10T12:26:37;8.63;;;5.88;;
24801;SDS011;12898;50.520;12.152;2023-06-10T12:29:19;8.23;;;5.82;;
24801;SDS011;12898;50.520;12.152;2023-06-10T12:31:57;9.93;;;4.97;;
24801;SDS011;12898;50.520;12.152;2023-06-10T12:34:33;9.80;;;5.40;;
24801;SDS011;12898;50.520;12.152;2023-06-10T12:37:02;8.18;;;5.30;;
24801;SDS011;12898;50.520;12.152;2023-06-10T12:39:30;9.10;;;5.88;;
24801;SDS011;12898;50.520;12.152;2023-06-10T12:41:57;10.85;;;5.47;;
24801;SDS011;12898;50.520;12.152;2023-06-10T12:44:30;7.38;;;5.55;;
24801;SDS011;12898;50.520;12.152;2023-06-10T12:47:06;10.38;;;5.32;;
24801;SDS011;12898;50.520;12.152;2023-06-10T12:49:39;8.80;;;5.50;;
24801;SDS011;12898;50.520;12.152;2023-06-10T12:52:05;7.85;;;5.18;;
24801;SDS011;12898;50.520;12.152;2023-06-10T12:54:31;7.97;;;4.93;;
24801;SDS011;12898;50.520;12.152;2023-06-10T12:56:57;9.35;;;5.43;;
24801;SDS011;12898;50.520;12.152;2023-06-10T12:59:23;9.55;;;5.22;;
24801;SDS011;12898;50.520;12.152;2023-06-10T13:01:50;8.27;;;5.28;;
24801;SDS011;12898;50.520;12.152;2023-06-10T13:04:19;10.05;;;5.30;;
24801;SDS011;12898;50.520;12.152;2023-06-10T13:06:46;9.50;;;5.03;;
24801;SDS011;12898;50.520;12.152;2023-06-10T13:09:14;6.85;;;4.97;;
24801;SDS011;12898;50.520;12.152;2023-06-10T13:11:40;9.65;;;4.72;;
24801;SDS011;12898;50.520;12.152;2023-06-10T13:14:06;7.10;;;4.93;;
24801;SDS011;12898;50.520;12.152;2023-06-10T13:16:32;9.77;;;5.10;;
24801;SDS011;12898;50.520;12.152;2023-06-10T13:18:58;9.02;;;4.95;;
24801;SDS011;12898;50.520;12.152;2023-06-10T13:21:25;8.77;;;4.70;;
24801;SDS011;12898;50.520;12.152;2023-06-10T13:23:51;5.60;;;4.60;;
24801;SDS011;12898;50.520;12.152;2023-06-10T13:26:17;11.23;;;5.07;;
24801;SDS011;12898;50.520;12.152;2023-06-10T13:28:43;6.53;;;4.60;;
24801;SDS011;12898;50.520;12.152;2023-06-10T13:31:09;7.88;;;4.82;;
24801;SDS011;12898;50.520;12.152;2023-06-10T13:33:35;6.80;;;4.43;;
24801;SDS011;12898;50.520;12.152;2023-06-10T13:36:02;9.00;;;5.05;;
24801;SDS011;12898;50.520;12.152;2023-06-10T13:38:27;8.75;;;4.70;;
24801;SDS011;12898;50.520;12.152;2023-06-10T13:40:53;6.53;;;4.60;;
24801;SDS011;12898;50.520;12.152;2023-06-10T13:43:19;7.30;;;4.72;;
24801;SDS011;12898;50.520;12.152;2023-06-10T13:45:44;7.68;;;4.22;;
24801;SDS011;12898;50.520;12.152;2023-06-10T13:48:10;6.68;;;4.55;;
24801;SDS011;12898;50.520;12.152;2023-06-10T13:50:37;7.93;;;4.30;;
24801;SDS011;12898;50.520;12.152;2023-06-10T13:53:03;6.32;;;4.30;;
24801;SDS011;12898;50.520;12.152;2023-06-10T13:55:29;27.55;;;9.48;;
24801;SDS011;12898;50.520;12.152;2023-06-10T13:57:54;8.30;;;4.70;;
24801;SDS011;12898;50.520;12.152;2023-06-10T14:00:20;70.70;;;10.38;;
24801;SDS011;12898;50.520;12.152;2023-06-10T14:02:46;21.60;;;8.02;;
24801;SDS011;12898;50.520;12.152;2023-06-10T14:05:11;13.25;;;5.13;;
24801;SDS011;12898;50.520;12.152;2023-06-10T14:07:37;32.53;;;12.90;;
24801;SDS011;12898;50.520;12.152;2023-06-10T14:10:04;8.57;;;4.32;;
24801;SDS011;12898;50.520;12.152;2023-06-10T14:12:31;10.80;;;4.93;;
24801;SDS011;12898;50.520;12.152;2023-06-10T14:14:56;6.97;;;3.90;;
24801;SDS011;12898;50.520;12.152;2023-06-10T14:17:22;12.38;;;6.15;;
24801;SDS011;12898;50.520;12.152;2023-06-10T14:19:48;10.38;;;4.43;;
24801;SDS011;12898;50.520;12.152;2023-06-10T14:22:14;7.00;;;3.88;;
24801;SDS011;12898;50.520;12.152;2023-06-10T14:24:40;10.90;;;3.83;;
24801;SDS011;12898;50.520;12.152;2023-06-10T14:27:05;8.73;;;4.28;;
24801;SDS011;12898;50.520;12.152;2023-06-10T14:29:31;8.05;;;3.83;;
24801;SDS011;12898;50.520;12.152;2023-06-10T14:31:58;5.43;;;4.00;;
24801;SDS011;12898;50.520;12.152;2023-06-10T14:34:25;8.20;;;3.80;;
24801;SDS011;12898;50.520;12.152;2023-06-10T14:36:54;10.23;;;3.92;;
24801;SDS011;12898;50.520;12.152;2023-06-10T14:39:20;8.35;;;4.50;;